Data for 03/10/2009

Time Sea-Level Adjusted Pressure Absolute Pressure Temperature Relative Humidity Dew Point   
(mb) (inHg) (mb) (inHg) (C) (F) (%) (C) (F)
00:05 1013 29.91 842 24.86 -18.1 -0.5 77 -21.2 -6.2
00:10 1013 29.91 842 24.86 -18 -0.5 77 -21.2 -6.1
00:15 1013 29.91 842 24.86 -18.1 -0.5 77 -21.2 -6.1
00:20 1013 29.91 842 24.86 -18 -0.5 77 -21.2 -6.1
00:25 1013 29.91 842 24.86 -18 -0.4 76 -21.2 -6.2
00:30 1013 29.91 842 24.86 -18 -0.4 76 -21.2 -6.2
00:35 1013 29.91 842 24.86 -18 -0.4 76 -21.3 -6.4
00:40 1013 29.91 842 24.86 -18 -0.5 76 -21.2 -6.2
00:45 1013 29.91 842 24.86 -18.1 -0.5 76 -21.3 -6.3
00:50 1013 29.91 842 24.86 -18.1 -0.6 75 -21.5 -6.7
00:55 1013 29.91 842 24.86 -18.2 -0.8 76 -21.5 -6.8
01:00 1013 29.91 842 24.86 -18.2 -0.8 76 -21.6 -6.8
01:05 1013 29.91 842 24.86 -18.2 -0.8 75 -21.6 -6.8
01:10 1013 29.91 842 24.86 -18.2 -0.8 76 -21.5 -6.7
01:15 1013 29.91 842 24.86 -18.3 -0.9 75 -21.6 -6.9
01:20 1013 29.91 842 24.86 -18.3 -0.9 75 -21.6 -6.9
01:25 1013 29.91 842 24.86 -18.3 -0.9 75 -21.7 -7.1
01:30 1013 29.91 842 24.86 -18.3 -1 75 -21.7 -7.1
01:35 1013 29.91 842 24.86 -18.4 -1.1 75 -21.8 -7.2
01:40 1013 29.91 842 24.86 -18.4 -1.2 75 -21.9 -7.3
01:45 1013 29.91 842 24.86 -18.5 -1.3 75 -21.9 -7.4
01:50 1013 29.91 842 24.86 -18.5 -1.4 74 -22 -7.7
01:55 1013 29.91 842 24.86 -18.7 -1.6 74 -22.2 -7.9
02:00 1013 29.91 842 24.86 -18.8 -1.9 75 -22.3 -8.1
02:05 1013 29.91 842 24.86 -19 -2.1 75 -22.4 -8.4
02:10 1013 29.91 842 24.86 -19 -2.2 75 -22.4 -8.4
02:15 1013 29.91 842 24.86 -19 -2.1 75 -22.4 -8.3
02:20 1013 29.91 842 24.86 -19 -2.2 75 -22.4 -8.4
02:25 1013 29.91 842 24.86 -19 -2.2 75 -22.5 -8.4
02:30 1013 29.91 842 24.86 -19 -2.2 75 -22.4 -8.4
02:35 1013 29.91 842 24.86 -19.1 -2.3 74 -22.5 -8.6
02:40 1013 29.91 842 24.86 -19.2 -2.5 75 -22.6 -8.7
02:45 1013 29.91 842 24.86 -19.2 -2.6 75 -22.6 -8.7
02:50 1013 29.91 842 24.86 -19.3 -2.7 74 -22.7 -8.9
02:55 1013 29.91 842 24.86 -19.3 -2.7 74 -22.8 -9.1
03:00 1013 29.91 842 24.86 -19.3 -2.7 73 -22.9 -9.3
03:05 1013 29.91 842 24.86 -19.3 -2.7 73 -23 -9.5
03:10 1013 29.91 842 24.86 -19.3 -2.8 72 -23.1 -9.6
03:15 1013 29.91 842 24.86 -19.4 -2.9 73 -23.1 -9.6
03:20 1013 29.91 842 24.86 -19.5 -3.1 73 -23.2 -9.7
03:25 1013 29.91 842 24.86 -19.5 -3 73 -23.2 -9.7
03:30 1013 29.91 842 24.86 -19.5 -3 73 -23.1 -9.7
03:35 1013 29.91 842 24.86 -19.4 -2.9 73 -23.1 -9.5
03:40 1013 29.91 842 24.86 -19.4 -2.9 73 -23.1 -9.6
03:45 1013 29.91 842 24.86 -19.4 -3 73 -23.1 -9.6
03:50 1013 29.91 842 24.86 -19.4 -2.9 74 -22.9 -9.2
03:55 1013 29.91 842 24.86 -19.4 -2.9 74 -22.9 -9.2
04:00 1013 29.91 842 24.86 -19.4 -2.9 75 -22.8 -9.1
04:05 1013 29.91 842 24.86 -19.4 -2.9 75 -22.8 -9
04:10 1013 29.91 842 24.86 -19.4 -2.9 75 -22.7 -8.9
04:15 1013 29.91 842 24.86 -19.5 -3 75 -22.8 -9.1
04:20 1013 29.91 842 24.86 -19.5 -3.2 75 -22.9 -9.2
04:25 1013 29.91 842 24.86 -19.6 -3.3 75 -23 -9.5
04:30 1013 29.91 842 24.86 -19.6 -3.2 74 -23 -9.4
04:35 1013 29.91 842 24.86 -19.6 -3.3 75 -23 -9.5
04:40 1013 29.91 842 24.86 -19.6 -3.4 75 -23.1 -9.6
04:45 1013 29.91 842 24.86 -19.7 -3.4 75 -23 -9.5
04:50 1013 29.91 842 24.86 -19.7 -3.5 75 -23.1 -9.6
04:55 1013 29.91 842 24.86 -19.7 -3.5 75 -23 -9.5
05:00 1013 29.91 842 24.86 -19.7 -3.5 75 -23.1 -9.6
05:05 1013 29.91 842 24.86 -19.8 -3.6 75 -23.2 -9.7
05:10 1013 29.91 842 24.86 -19.7 -3.5 74 -23.2 -9.8
05:15 1013 29.91 842 24.86 -19.7 -3.4 74 -23.2 -9.7
05:20 1013 29.91 842 24.86 -19.6 -3.4 74 -23.1 -9.6
05:25 1013 29.91 842 24.86 -19.6 -3.4 74 -23.1 -9.7
05:30 1013 29.91 842 24.86 -19.6 -3.2 74 -23 -9.5
05:35 1013 29.91 842 24.86 -19.5 -3.2 75 -23 -9.3
05:40 1013 29.91 842 24.86 -19.5 -3.1 74 -23 -9.4
05:45 1013 29.91 842 24.86 -19.5 -3.1 74 -23 -9.3
05:50 1013 29.91 842 24.86 -19.5 -3.2 74 -23 -9.4
05:55 1013 29.91 842 24.86 -19.5 -3.1 75 -22.9 -9.3
06:00 1013 29.91 842 24.86 -19.4 -3 74 -22.9 -9.2
06:05 1013 29.91 842 24.86 -19.4 -2.8 74 -22.8 -9.1
06:10 1013 29.91 842 24.86 -19.3 -2.7 74 -22.8 -9.1
06:15 1013 29.91 842 24.86 -19.3 -2.8 74 -22.8 -9.1
06:20 1013 29.91 842 24.86 -19.4 -2.9 74 -22.9 -9.2
06:25 1013 29.91 842 24.86 -19.4 -2.8 74 -22.8 -9.1
06:30 1013 29.91 842 24.86 -19.3 -2.8 74 -22.8 -9.1
06:35 1013 29.91 842 24.86 -19.4 -2.9 74 -22.9 -9.1
06:40 1013 29.91 843 24.89 -19.4 -3 75 -22.8 -9.1
06:45 1013 29.91 842 24.86 -19.4 -3 75 -22.8 -9
06:50 1013 29.91 843 24.89 -19.4 -3 75 -22.7 -8.9
06:55 1013 29.91 843 24.89 -19.4 -2.9 75 -22.8 -9
07:00 1013 29.91 842 24.86 -19.5 -3 75 -22.8 -9.1
07:05 1013 29.91 842 24.86 -19.5 -3.2 75 -22.9 -9.2
07:10 1013 29.91 842 24.86 -19.5 -3.2 75 -22.9 -9.3
07:15 1013 29.91 842 24.86 -19.6 -3.2 74 -23 -9.4
07:20 1013 29.91 843 24.89 -19.5 -3.1 75 -22.9 -9.3
07:25 1013 29.91 842 24.86 -19.5 -3.1 75 -22.9 -9.2
07:30 1013 29.91 843 24.89 -19.5 -3 74 -23 -9.5
07:35 1013 29.91 842 24.86 -19.5 -3 74 -23 -9.4
07:40 1013 29.91 843 24.89 -19.4 -2.9 74 -23 -9.4
07:45 1013 29.91 843 24.89 -19.3 -2.8 73 -23 -9.4
07:50 1013 29.91 843 24.89 -19.2 -2.6 74 -22.8 -9.1
07:55 1013 29.91 843 24.89 -19 -2.3 73 -22.7 -8.8
08:00 1013 29.91 843 24.89 -19 -2.1 73 -22.7 -8.8
08:05 1013 29.91 843 24.89 -19 -2.2 73 -22.7 -8.8
08:10 1013 29.91 843 24.89 -19 -2.2 73 -22.7 -8.8
08:15 1013 29.91 843 24.89 -19 -2.2 73 -22.7 -8.8
08:20 1013 29.91 843 24.89 -18.9 -2.1 73 -22.6 -8.6
08:25 1014 29.94 843 24.89 -18.9 -1.9 73 -22.6 -8.7
08:30 1013 29.91 843 24.89 -18.7 -1.7 72 -22.6 -8.7
08:35 1013 29.91 843 24.89 -18.7 -1.6 71 -22.7 -8.8
08:40 1014 29.94 843 24.89 -18.2 -0.8 70 -22.4 -8.3
08:45 1014 29.94 843 24.89 -17.5 0.5 70 -21.7 -7.1
08:50 1014 29.94 843 24.89 -17.1 1.2 68 -21.7 -7.1
08:55 1014 29.94 843 24.89 -17.1 1.2 68 -21.6 -6.9
09:00 1014 29.94 843 24.89 -17.1 1.1 69 -21.6 -6.9
09:05 1014 29.94 843 24.89 -17.1 1.2 70 -21.4 -6.5
09:10 1014 29.94 843 24.89 -16.6 2.2 66 -21.6 -6.9
09:15 1014 29.94 843 24.89 -16.5 2.4 65 -21.5 -6.8
09:20 1014 29.94 843 24.89 -16.4 2.5 66 -21.4 -6.5
09:25 1014 29.94 843 24.89 -17 1.4 69 -21.4 -6.5
09:30 1014 29.94 843 24.89 -17.2 1 69 -21.6 -6.8
09:35 1014 29.94 843 24.89 -17.1 1.3 67 -21.8 -7.2
09:40 1014 29.94 843 24.89 -16.6 2.1 68 -21.2 -6.2
09:45 1014 29.94 843 24.89 -16.7 1.9 68 -21.3 -6.3
09:50 1014 29.94 843 24.89 -16 3.1 63 -21.5 -6.7
09:55 1014 29.94 843 24.89 -15.8 3.6 65 -21 -5.8
10:00 1014 29.94 844 24.92 -15.5 4.2 64 -20.9 -5.5
10:05 1014 29.94 844 24.92 -15.6 3.9 64 -20.9 -5.6
10:10 1014 29.94 844 24.92 -15.6 3.9 64 -20.9 -5.6
10:15 1014 29.94 844 24.92 -15.8 3.5 65 -20.9 -5.7
10:20 1014 29.94 844 24.92 -15.8 3.6 64 -21.1 -5.9
10:25 1015 29.97 844 24.92 -15.1 4.8 61 -21.1 -5.9
10:30 1015 29.97 844 24.92 -14.2 6.5 59 -20.6 -5.1
10:35 1015 29.97 844 24.92 -14 6.8 58 -20.5 -4.9
10:40 1015 29.97 844 24.92 -13 8.5 55 -20.3 -4.5
10:45 1015 29.97 844 24.92 -13.8 7.3 59 -20.2 -4.3
10:50 1015 29.97 844 24.92 -14.7 5.5 64 -20.1 -4.3
10:55 1014 29.94 844 24.92 -13.8 7.2 59 -20.3 -4.5
11:00 1015 29.97 844 24.92 -13 8.5 59 -19.6 -3.2
11:05 1015 29.97 844 24.92 -12.6 9.2 54 -20.1 -4.2
11:10 1015 29.97 844 24.92 -12 10.5 53 -19.8 -3.6
11:15 1015 29.97 844 24.92 -12.7 9.2 55 -19.9 -3.8
11:20 1015 29.97 844 24.92 -12.6 9.4 55 -19.9 -3.8
11:25 1015 29.97 844 24.92 -12.2 10.1 54 -19.7 -3.4
11:30 1015 29.97 844 24.92 -12 10.4 57 -19 -2.2
11:35 1015 29.97 844 24.92 -11.2 11.8 54 -18.7 -1.7
11:40 1015 29.97 844 24.92 -11.3 11.7 53 -19 -2.3
11:45 1015 29.97 844 24.92 -11.2 11.9 52 -19.2 -2.6
11:50 1015 29.97 844 24.92 -10.6 13 53 -18.4 -1.1
11:55 1015 29.97 844 24.92 -11.4 11.5 54 -18.9 -2
12:00 1015 29.97 844 24.92 -11.6 11.2 55 -18.8 -1.9
12:05 1015 29.97 844 24.92 -11.1 12 55 -18.4 -1.1
12:10 1015 29.97 844 24.92 -11.2 11.8 54 -18.9 -2
12:15 1015 29.97 844 24.92 -11.2 11.9 55 -18.5 -1.4
12:20 1015 29.97 844 24.92 -11.4 11.5 56 -18.4 -1.2
12:25 1015 29.97 844 24.92 -11 12.1 55 -18.5 -1.3
12:30 1015 29.97 844 24.92 -11.3 11.6 56 -18.6 -1.4
12:35 1015 29.97 844 24.92 -11.4 11.4 54 -18.9 -2.1
12:40 1015 29.97 844 24.92 -10.9 12.4 52 -18.9 -2
12:45 1015 29.97 844 24.92 -10.5 13 53 -18.4 -1.1
12:50 1015 29.97 844 24.92 -10.3 13.4 53 -18.2 -0.8
12:55 1015 29.97 844 24.92 -10.6 13 53 -18.4 -1.2
13:00 1015 29.97 844 24.92 -9.8 14.3 51 -18.3 -0.9
13:05 1015 29.97 844 24.92 -9.5 14.9 51 -17.8 -0.1
13:10 1015 29.97 844 24.92 -9.9 14.3 51 -18.2 -0.7
13:15 1015 29.97 844 24.92 -10.2 13.6 52 -18.4 -1
13:20 1015 29.97 844 24.92 -10.3 13.4 50 -18.8 -1.8
13:25 1015 29.97 844 24.92 -9.8 14.5 49 -18.6 -1.5
13:30 1015 29.97 845 24.95 -10.4 13.2 53 -18.3 -0.9
13:35 1015 29.97 845 24.95 -10.5 13 53 -18.3 -1
13:40 1015 29.97 844 24.92 -11.1 12 57 -18.1 -0.6
13:45 1015 29.97 844 24.92 -11 12.3 60 -17.2 1
13:50 1015 29.97 844 24.92 -10.8 12.5 58 -17.6 0.3
13:55 1015 29.97 844 24.92 -11.2 11.8 55 -18.6 -1.5
14:00 1015 29.97 844 24.92 -11.5 11.4 58 -18.2 -0.7
14:05 1015 29.97 844 24.92 -11.4 11.5 54 -18.9 -2
14:10 1015 29.97 844 24.92 -10.3 13.4 52 -18.3 -1
14:15 1015 29.97 844 24.92 -9.6 14.7 52 -17.6 0.3
14:20 1015 29.97 844 24.92 -9.2 15.5 52 -17.3 0.9
14:25 1015 29.97 844 24.92 -8.9 16.1 52 -17 1.3
14:30 1015 29.97 844 24.92 -8.8 16.1 52 -17 1.4
14:35 1015 29.97 844 24.92 -9.1 15.7 52 -17.2 1
14:40 1015 29.97 844 24.92 -9.1 15.6 51 -17.4 0.6
14:45 1015 29.97 844 24.92 -9.2 15.5 53 -17.2 1.1
14:50 1015 29.97 844 24.92 -8.8 16.1 52 -17 1.4
14:55 1015 29.97 844 24.92 -8.5 16.7 51 -17 1.4
15:00 1015 29.97 844 24.92 -8.5 16.8 50 -17.1 1.3
15:05 1015 29.97 844 24.92 -9.3 15.3 52 -17.4 0.7
15:10 1015 29.97 844 24.92 -9.6 14.8 51 -18 -0.5
15:15 1015 29.97 844 24.92 -10.4 13.3 57 -17.4 0.7
15:20 1015 29.97 844 24.92 -10.2 13.7 57 -17.2 1.1
15:25 1015 29.97 844 24.92 -9.3 15.3 53 -17.1 1.2
15:30 1015 29.97 844 24.92 -8.3 17.2 50 -17 1.4
15:35 1015 29.97 844 24.92 -8.3 17 51 -16.9 1.6
15:40 1015 29.97 844 24.92 -8.2 17.3 49 -17.1 1.2
15:45 1015 29.97 844 24.92 -8.4 16.9 51 -16.7 1.9
15:50 1015 29.97 844 24.92 -8.4 16.9 52 -16.7 1.9
15:55 1015 29.97 844 24.92 -8.5 16.7 51 -17 1.4
16:00 1015 29.97 844 24.92 -8 17.5 50 -16.8 1.7
16:05 1015 29.97 845 24.95 -7.7 18.2 48 -16.8 1.7
16:10 1015 29.97 845 24.95 -7.4 18.8 46 -17.2 1
16:15 1015 29.97 845 24.95 -7.7 18.2 49 -16.7 2
16:20 1016 30 845 24.95 -8.1 17.4 48 -17.2 1
16:25 1016 30 845 24.95 -8.3 17.1 50 -17 1.3
16:30 1016 30 845 24.95 -8.4 16.8 51 -17 1.4
16:35 1016 30 845 24.95 -9 15.8 56 -16.3 2.7
16:40 1016 30 845 24.95 -8.9 16 54 -16.7 2
16:45 1016 30 845 24.95 -8.7 16.3 52 -16.9 1.5
16:50 1016 30 845 24.95 -8.9 16 54 -16.6 2.2
16:55 1016 30 845 24.95 -8.9 16 55 -16.5 2.3
17:00 1016 30 845 24.95 -8.8 16.2 56 -16.1 3
17:05 1016 30 845 24.95 -8.5 16.6 54 -16.3 2.7
17:10 1016 30 845 24.95 -9 15.8 55 -16.6 2.2
17:15 1016 30 845 24.95 -9.4 15.2 58 -16.3 2.7
17:20 1016 30 845 24.95 -9.8 14.3 59 -16.5 2.3
17:25 1016 30 845 24.95 -10.2 13.6 62 -16.2 2.8
17:30 1016 30 846 24.98 -10.3 13.4 60 -16.7 1.9
17:35 1016 30 846 24.98 -10.3 13.4 63 -16.2 2.9
17:40 1016 30 846 24.98 -10.3 13.4 60 -16.6 2.2
17:45 1017 30.03 846 24.98 -10.1 13.8 60 -16.5 2.4
17:50 1017 30.03 846 24.98 -9.8 14.3 59 -16.4 2.4
17:55 1017 30.03 846 24.98 -9.8 14.4 60 -16.2 2.9
18:00 1017 30.03 846 24.98 -10.2 13.7 60 -16.5 2.3
18:05 1017 30.03 846 24.98 -10.2 13.6 62 -16.3 2.7
18:10 1017 30.03 846 24.98 -10.6 13 62 -16.5 2.4
18:15 1017 30.03 846 24.98 -10.5 13 62 -16.6 2.2
18:20 1017 30.03 846 24.98 -10.2 13.6 62 -16.3 2.7
18:25 1017 30.03 846 24.98 -10.4 13.3 64 -16.1 3.1
18:30 1017 30.03 846 24.98 -10.5 13.1 64 -16.1 3.1
18:35 1017 30.03 846 24.98 -10.7 12.8 65 -16 3.1
18:40 1017 30.03 846 24.98 -10.6 12.9 65 -16.1 3.1
18:45 1017 30.03 847 25.01 -10.5 13 65 -16 3.2
18:50 1017 30.03 847 25.01 -10.7 12.8 66 -15.8 3.6
18:55 1018 30.06 847 25.01 -10.7 12.7 66 -15.8 3.6
19:00 1018 30.06 847 25.01 -10.8 12.5 68 -15.6 3.8
19:05 1018 30.06 847 25.01 -10.9 12.4 68 -15.7 3.8
19:10 1018 30.06 847 25.01 -11 12.3 68 -15.7 3.7
19:15 1018 30.06 847 25.01 -10.9 12.3 67 -15.9 3.4
19:20 1018 30.06 847 25.01 -11.1 12 68 -16 3.2
19:25 1018 30.06 847 25.01 -11.2 11.8 67 -16.1 3
19:30 1018 30.06 847 25.01 -11.3 11.7 71 -15.5 4.1
19:35 1018 30.06 848 25.04 -11.5 11.3 75 -15.2 4.7
19:40 1018 30.06 848 25.04 -11.7 10.9 76 -15.2 4.7
19:45 1018 30.06 848 25.04 -12 10.4 77 -15.3 4.4
19:50 1019 30.09 848 25.04 -12.1 10.2 76 -15.5 4.2
19:55 1019 30.09 848 25.04 -12.1 10.2 75 -15.6 3.9
20:00 1019 30.09 848 25.04 -12.3 9.8 76 -15.8 3.6
20:05 1019 30.09 848 25.04 -12.4 9.6 76 -15.9 3.4
20:10 1019 30.09 848 25.04 -12.5 9.4 76 -15.9 3.4
20:15 1019 30.09 848 25.04 -12.6 9.3 76 -16.1 3
20:20 1019 30.09 848 25.04 -12.8 9.1 75 -16.2 2.8
20:25 1019 30.09 848 25.04 -12.7 9.2 75 -16.2 2.8
20:30 1019 30.09 849 25.07 -12.6 9.3 76 -16.1 3.1
20:35 1019 30.09 849 25.07 -12.7 9.2 76 -16 3.2
20:40 1020 30.12 849 25.07 -12.7 9.2 76 -16 3.1
20:45 1020 30.12 849 25.07 -12.9 8.9 76 -16.2 2.9
20:50 1020 30.12 849 25.07 -13 8.7 74 -16.6 2.1
20:55 1020 30.12 849 25.07 -13.2 8.3 75 -16.8 1.8
21:00 1020 30.12 849 25.07 -13.3 8.1 75 -16.9 1.6
21:05 1020 30.12 849 25.07 -13.3 8 75 -16.9 1.5
21:10 1020 30.12 849 25.07 -13.3 8 75 -16.9 1.6
21:15 1020 30.12 849 25.07 -13.4 7.8 77 -16.7 2
21:20 1020 30.12 849 25.07 -13.4 7.9 76 -16.8 1.7
21:25 1020 30.12 849 25.07 -13.5 7.6 77 -16.8 1.8
21:30 1020 30.12 849 25.07 -13.6 7.5 76 -17.1 1.3
21:35 1020 30.12 849 25.07 -13.5 7.7 75 -17.1 1.3
21:40 1020 30.12 849 25.07 -13.7 7.4 76 -17 1.5
21:45 1020 30.12 849 25.07 -14.5 5.9 80 -17.2 1.1
21:50 1020 30.12 849 25.07 -14.5 6 81 -17.1 1.3
21:55 1020 30.12 849 25.07 -14.8 5.4 81 -17.3 0.8
22:00 1020 30.12 850 25.1 -14.9 5.1 80 -17.6 0.3
22:05 1020 30.12 850 25.1 -15 5 79 -17.9 -0.2
22:10 1020 30.12 850 25.1 -15.3 4.5 82 -17.7 0.2
22:15 1021 30.15 850 25.1 -15.6 3.9 83 -17.9 -0.3
22:20 1021 30.15 850 25.1 -16.1 3.1 83 -18.3 -1
22:25 1021 30.15 850 25.1 -16.5 2.4 85 -18.5 -1.3
22:30 1021 30.15 850 25.1 -16.4 2.4 83 -18.6 -1.5
22:35 1021 30.15 850 25.1 -16.6 2.2 84 -18.6 -1.5
22:40 1021 30.15 850 25.1 -16.5 2.4 83 -18.6 -1.6
22:45 1021 30.15 850 25.1 -16.8 1.9 85 -18.7 -1.7
22:50 1021 30.15 850 25.1 -16.9 1.7 86 -18.7 -1.7
22:55 1021 30.15 850 25.1 -16.7 1.9 85 -18.6 -1.5
23:00 1021 30.15 850 25.1 -16.9 1.6 84 -19 -2.1
23:05 1021 30.15 850 25.1 -16.9 1.5 85 -18.9 -2.1
23:10 1021 30.15 850 25.1 -16.9 1.6 84 -19 -2.1
23:15 1021 30.15 850 25.1 -17.1 1.3 85 -19 -2.2
23:20 1021 30.15 850 25.1 -17.1 1.2 86 -18.9 -2.1
23:25 1021 30.15 850 25.1 -17.4 0.8 87 -19.1 -2.3
23:30 1021 30.15 850 25.1 -17.5 0.6 87 -19.1 -2.4
23:35 1021 30.15 850 25.1 -17.5 0.5 87 -19.2 -2.6
23:40 1021 30.15 850 25.1 -17.5 0.6 86 -19.3 -2.7
23:45 1021 30.15 850 25.1 -17.5 0.5 86 -19.3 -2.7
23:50 1021 30.15 850 25.1 -17.5 0.5 87 -19.2 -2.6
23:55 1021 30.15 850 25.1 -17.2 1 85 -19.2 -2.6
24:00 1021 30.15 850 25.1 -17.1 1.3 85 -19.1 -2.3